createdAt,value
2022-07-30T00:02:15.487Z,100599.59
2022-07-30T00:04:47.261Z,100600.81
2022-07-30T00:07:18.671Z,100590.59
2022-07-30T00:09:50.321Z,100596.69
2022-07-30T00:12:21.760Z,100591.22
2022-07-30T00:14:53.072Z,100605.28
2022-07-30T00:17:24.501Z,100604.38
2022-07-30T00:19:55.820Z,100604.97
2022-07-30T00:22:27.550Z,100592.63
2022-07-30T00:24:59.168Z,100603.81
2022-07-30T00:27:32.231Z,100606.47
2022-07-30T00:30:06.445Z,100613.28
2022-07-30T00:32:38.397Z,100581.34
2022-07-30T00:35:10.472Z,100618.63
2022-07-30T00:37:41.808Z,100612.34
2022-07-30T00:40:13.700Z,100607.69
2022-07-30T00:42:47.855Z,100610.31
2022-07-30T00:45:20.340Z,100551.44
2022-07-30T00:47:52.051Z,100612.78
2022-07-30T00:50:23.853Z,100615.59
2022-07-30T00:52:55.556Z,100624.72
2022-07-30T00:55:27.043Z,100624.88
2022-07-30T00:57:58.511Z,100622.56
2022-07-30T01:00:30.134Z,100624.50
2022-07-30T01:03:03.863Z,100611.94
2022-07-30T01:05:35.783Z,100614.78
2022-07-30T01:08:07.332Z,100612.69
2022-07-30T01:10:39.209Z,100632.38
2022-07-30T01:13:11.508Z,100637.13
2022-07-30T01:15:42.536Z,100646.34
2022-07-30T01:18:15.950Z,100560.81
2022-07-30T01:21:09.620Z,100649.59
2022-07-30T01:23:47.850Z,100652.38
2022-07-30T01:26:22.657Z,100602.66
2022-07-30T01:28:58.019Z,100598.53
2022-07-30T01:31:30.686Z,100651.59
2022-07-30T01:34:04.060Z,100646.16
2022-07-30T01:36:36.133Z,100664.44
2022-07-30T01:39:08.963Z,100660.44
2022-07-30T01:41:42.136Z,100661.63
2022-07-30T01:44:16.299Z,100639.06
2022-07-30T01:46:58.209Z,100616.16
2022-07-30T01:49:31.460Z,100674.38
2022-07-30T01:52:05.421Z,100607.75
2022-07-30T01:54:38.561Z,100665.53
2022-07-30T01:57:11.980Z,100660.47
2022-07-30T01:59:45.905Z,100667.88
2022-07-30T02:02:17.926Z,100653.38
2022-07-30T02:04:50.270Z,100668.84
2022-07-30T02:07:38.534Z,100664.56
2022-07-30T02:10:30.255Z,100650.31
2022-07-30T02:13:08.364Z,100635.31
2022-07-30T02:16:14.478Z,100646.56
2022-07-30T02:19:14.207Z,100648.00
2022-07-30T02:21:50.638Z,100606.28
2022-07-30T02:24:27.905Z,100645.03
2022-07-30T02:27:08.947Z,100653.63
2022-07-30T02:29:41.136Z,100646.31
2022-07-30T02:32:18.264Z,100588.94
2022-07-30T02:34:59.297Z,100591.06
2022-07-30T02:37:43.014Z,100542.72
2022-07-30T02:40:18.856Z,100650.06
2022-07-30T02:42:52.434Z,100624.34
2022-07-30T02:45:27.302Z,100625.63
2022-07-30T02:48:09.420Z,100632.34
2022-07-30T02:50:43.466Z,100638.94
2022-07-30T02:53:17.808Z,100575.72
2022-07-30T02:55:51.206Z,100631.38
2022-07-30T02:58:26.087Z,100630.91
2022-07-30T03:00:59.059Z,100631.13
2022-07-30T03:03:31.415Z,100634.22
2022-07-30T03:06:04.097Z,100629.34
2022-07-30T03:08:36.297Z,100631.03
2022-07-30T03:11:08.653Z,100628.31
2022-07-30T03:13:40.324Z,100620.19
2022-07-30T03:16:14.961Z,100625.13
2022-07-30T03:18:47.562Z,100614.75
2022-07-30T03:21:22.196Z,100618.13
2022-07-30T03:23:55.342Z,100609.75
2022-07-30T03:26:29.029Z,100570.91
2022-07-30T03:29:01.044Z,100612.69
2022-07-30T03:31:36.443Z,100622.03
2022-07-30T03:34:12.795Z,100603.03
2022-07-30T03:36:46.373Z,100605.63
2022-07-30T03:39:19.365Z,100591.53
2022-07-30T03:41:51.511Z,100607.47
2022-07-30T03:44:24.201Z,100614.53
2022-07-30T03:46:59.095Z,100612.41
2022-07-30T03:49:31.580Z,100598.81
2022-07-30T03:52:03.632Z,100608.47
2022-07-30T03:54:35.949Z,100602.34
2022-07-30T03:57:25.541Z,100600.72
2022-07-30T03:59:56.974Z,100609.78
2022-07-30T04:02:28.571Z,100597.63
2022-07-30T04:05:19.825Z,100582.00
2022-07-30T04:07:52.901Z,100577.19
2022-07-30T04:10:25.385Z,100575.97
2022-07-30T04:13:05.433Z,100574.88
2022-07-30T04:16:38.276Z,100556.59
2022-07-30T04:19:00.836Z,100513.56
2022-07-30T04:21:35.433Z,100559.25
2022-07-30T04:24:08.548Z,100560.56
2022-07-30T04:26:41.375Z,100555.22
2022-07-30T04:29:18.158Z,100559.66
2022-07-30T04:31:50.708Z,100559.66
2022-07-30T04:34:52.048Z,100546.72
2022-07-30T04:37:43.004Z,100556.00
2022-07-30T04:40:14.539Z,100558.72
2022-07-30T04:42:45.916Z,100557.16
2022-07-30T04:45:17.458Z,100563.41
2022-07-30T04:47:55.378Z,100554.50
2022-07-30T04:50:48.859Z,100515.34
2022-07-30T04:53:23.590Z,100558.63
2022-07-30T04:56:01.129Z,100560.72
2022-07-30T04:58:36.884Z,100556.41
2022-07-30T05:01:08.506Z,100563.22
2022-07-30T05:03:42.071Z,100554.31
2022-07-30T05:06:15.405Z,100477.47
2022-07-30T05:08:47.677Z,100552.38
2022-07-30T05:11:19.008Z,100552.44
2022-07-30T05:13:51.224Z,100482.53
2022-07-30T05:16:26.481Z,100541.88
2022-07-30T05:18:59.748Z,100524.03
2022-07-30T05:21:31.487Z,100522.59
2022-07-30T05:24:02.909Z,100535.81
2022-07-30T05:26:40.328Z,100536.75
2022-07-30T05:29:18.063Z,100502.56
2022-07-30T05:32:14.192Z,100525.56
2022-07-30T05:34:49.941Z,100524.03
2022-07-30T05:37:21.914Z,100520.06
2022-07-30T05:39:58.885Z,100518.41
2022-07-30T05:42:39.865Z,100510.88
2022-07-30T05:45:12.856Z,100496.25
2022-07-30T05:47:45.364Z,100490.81
2022-07-30T05:50:16.870Z,100473.22
2022-07-30T05:52:48.271Z,100480.19
2022-07-30T05:55:57.835Z,100467.47
2022-07-30T05:58:47.002Z,100466.63
2022-07-30T06:01:23.455Z,100461.19
2022-07-30T06:03:56.488Z,100463.09
2022-07-30T06:06:49.973Z,100450.44
2022-07-30T06:09:24.314Z,100451.50
2022-07-30T06:12:09.151Z,100442.31
2022-07-30T06:14:41.218Z,100435.81
2022-07-30T06:17:16.227Z,100385.88
2022-07-30T06:20:11.797Z,100423.66
2022-07-30T06:23:11.916Z,100428.53
2022-07-30T06:26:18.146Z,100393.19
2022-07-30T06:28:49.967Z,100405.53
2022-07-30T06:31:32.137Z,100378.78
2022-07-30T06:34:04.190Z,100385.94
2022-07-30T06:36:41.634Z,100395.28
2022-07-30T06:39:58.059Z,100387.38
2022-07-30T06:42:31.670Z,100384.88
2022-07-30T06:45:26.104Z,100387.72
2022-07-30T06:48:17.634Z,100370.28
2022-07-30T06:50:49.030Z,100377.97
2022-07-30T06:53:20.853Z,100377.97
2022-07-30T06:56:10.409Z,100367.66
2022-07-30T06:58:52.281Z,100358.97
2022-07-30T07:01:41.609Z,100358.47
2022-07-30T07:04:13.263Z,100349.16
2022-07-30T07:06:44.469Z,100339.75
2022-07-30T07:09:21.009Z,100334.16
2022-07-30T07:12:03.171Z,100340.31
2022-07-30T07:14:34.588Z,100337.81
2022-07-30T07:17:06.884Z,100343.63
2022-07-30T07:20:11.033Z,100331.69
2022-07-30T07:22:50.388Z,100323.81
2022-07-30T07:25:21.915Z,100323.56
2022-07-30T07:28:11.176Z,100315.75
2022-07-30T07:30:48.268Z,100311.00
2022-07-30T07:33:21.415Z,100309.38
2022-07-30T07:35:53.317Z,100306.91
2022-07-30T07:38:31.399Z,100281.56
2022-07-30T07:41:03.567Z,100284.47
2022-07-30T07:43:34.879Z,100294.78
2022-07-30T07:46:06.300Z,100279.28
2022-07-30T07:48:40.828Z,100285.22
2022-07-30T07:51:48.197Z,100280.72
2022-07-30T07:54:24.599Z,100276.00
2022-07-30T07:56:58.337Z,100275.03
2022-07-30T07:59:40.131Z,100270.59
2022-07-30T08:02:28.829Z,100280.69
2022-07-30T08:05:09.886Z,100279.53
2022-07-30T08:07:55.130Z,100282.97
2022-07-30T08:10:58.914Z,100279.09
2022-07-30T08:13:56.215Z,100274.09
2022-07-30T08:16:47.647Z,100273.16
2022-07-30T08:19:37.788Z,100261.69
2022-07-30T08:22:20.204Z,100257.47
2022-07-30T08:24:51.795Z,100271.47
2022-07-30T08:27:23.496Z,100259.44
2022-07-30T08:29:55.403Z,100273.91
2022-07-30T08:32:26.741Z,100268.81
2022-07-30T08:34:57.954Z,100278.22
2022-07-30T08:37:29.484Z,100278.38
2022-07-30T08:40:00.865Z,100283.53
2022-07-30T08:42:33.151Z,100284.69
2022-07-30T08:45:04.917Z,100287.72
2022-07-30T08:47:37.920Z,100293.47
2022-07-30T08:50:25.029Z,100278.84
2022-07-30T08:53:14.970Z,100273.41
2022-07-30T08:55:47.831Z,100271.88
2022-07-30T08:58:35.399Z,100269.16
2022-07-30T09:01:08.267Z,100254.03
2022-07-30T09:03:44.111Z,100264.44
2022-07-30T09:06:17.049Z,100255.69
2022-07-30T09:08:48.907Z,100259.47
2022-07-30T09:11:21.416Z,100241.03
2022-07-30T09:13:53.200Z,100266.50
2022-07-30T09:16:27.880Z,100207.22
2022-07-30T09:19:20.879Z,100207.38
2022-07-30T09:22:03.843Z,100215.22
2022-07-30T09:25:04.133Z,100254.81
2022-07-30T09:28:01.220Z,100251.88
2022-07-30T09:31:10.812Z,100212.19
2022-07-30T09:34:00.095Z,100270.78
2022-07-30T09:37:21.312Z,100168.09
2022-07-30T09:40:19.210Z,100254.97
2022-07-30T09:43:12.261Z,100274.66
2022-07-30T09:45:57.235Z,100280.69
2022-07-30T09:48:30.636Z,100314.25
2022-07-30T09:51:02.013Z,100317.78
2022-07-30T09:53:34.557Z,100327.56
2022-07-30T09:56:30.401Z,100300.28
2022-07-30T09:59:03.992Z,100295.50
2022-07-30T10:02:00.764Z,100222.09
2022-07-30T10:04:50.461Z,100264.41
2022-07-30T10:07:25.283Z,100240.28
2022-07-30T10:10:02.358Z,100276.44
2022-07-30T10:12:40.100Z,100265.53
2022-07-30T10:15:13.500Z,100237.22
2022-07-30T10:17:45.409Z,100232.84
2022-07-30T10:20:30.174Z,100229.53
2022-07-30T10:23:44.180Z,100254.31
2022-07-30T10:26:36.662Z,100282.09
2022-07-30T10:29:42.698Z,100313.41
2022-07-30T10:32:14.535Z,100346.09
2022-07-30T10:34:46.988Z,100302.25
2022-07-30T10:37:22.107Z,100333.47
2022-07-30T10:40:03.146Z,100359.66
2022-07-30T10:42:58.521Z,100372.13
2022-07-30T10:45:43.709Z,100364.78
2022-07-30T10:48:21.061Z,100294.75
2022-07-30T10:50:59.095Z,100365.00
2022-07-30T10:53:40.222Z,100389.47
2022-07-30T10:56:29.772Z,100377.81
2022-07-30T10:59:03.162Z,100384.22
2022-07-30T11:01:54.295Z,100383.50
2022-07-30T11:04:29.594Z,100390.69
2022-07-30T11:07:26.535Z,100385.06
2022-07-30T11:10:05.264Z,100321.28
2022-07-30T11:12:52.761Z,100384.09
2022-07-30T11:15:25.552Z,100393.31
2022-07-30T11:18:12.909Z,100387.19
2022-07-30T11:21:05.871Z,100404.91
2022-07-30T11:23:41.876Z,100398.03
2022-07-30T11:26:14.120Z,100406.00
2022-07-30T11:28:49.837Z,100411.44
2022-07-30T11:31:57.063Z,100396.13
2022-07-30T11:34:30.836Z,100396.94
2022-07-30T11:37:18.864Z,100402.88
2022-07-30T11:40:00.063Z,100405.59
2022-07-30T11:42:36.301Z,100413.75
2022-07-30T11:45:20.018Z,100419.69
2022-07-30T11:47:57.804Z,100424.13
2022-07-30T11:50:30.791Z,100425.69
2022-07-30T11:53:05.043Z,100447.09
2022-07-30T11:55:43.878Z,100324.88
2022-07-30T11:58:28.248Z,100420.03
2022-07-30T12:01:29.518Z,100363.66
2022-07-30T12:04:04.089Z,100444.31
2022-07-30T12:06:37.901Z,100461.53
2022-07-30T12:09:10.351Z,100464.78
2022-07-30T12:11:42.057Z,100486.63
2022-07-30T12:14:15.435Z,100496.69
2022-07-30T12:16:52.560Z,100438.81
2022-07-30T12:19:24.349Z,100501.41
2022-07-30T12:22:00.449Z,100497.84
2022-07-30T12:24:32.159Z,100494.38
2022-07-30T12:27:07.991Z,100426.63
2022-07-30T12:29:39.864Z,100492.47
2022-07-30T12:32:12.067Z,100497.91
2022-07-30T12:34:59.282Z,100423.13
2022-07-30T12:37:30.797Z,100495.97
2022-07-30T12:40:15.202Z,100502.72
2022-07-30T12:42:56.285Z,100514.75
2022-07-30T12:45:51.618Z,100461.41
2022-07-30T12:48:24.564Z,100529.44
2022-07-30T12:51:06.885Z,100546.34
2022-07-30T12:53:38.475Z,100550.84
2022-07-30T12:56:16.988Z,100485.28
2022-07-30T12:58:48.733Z,100557.69
2022-07-30T13:01:19.828Z,100553.09
2022-07-30T13:03:51.721Z,100566.88
2022-07-30T13:06:27.422Z,100515.47
2022-07-30T13:09:00.654Z,100572.06
2022-07-30T13:11:48.621Z,100554.09
2022-07-30T13:14:23.617Z,100569.19
2022-07-30T13:17:01.317Z,100583.19
2022-07-30T13:19:35.512Z,100552.94
2022-07-30T13:22:08.075Z,100583.19
2022-07-30T13:24:40.778Z,100577.44
2022-07-30T13:27:12.262Z,100577.16
2022-07-30T13:29:43.888Z,100570.00
2022-07-30T13:32:15.367Z,100557.63
2022-07-30T13:34:47.085Z,100574.94
2022-07-30T13:37:18.652Z,100577.09
2022-07-30T13:39:50.097Z,100582.56
2022-07-30T13:42:24.654Z,100589.63
2022-07-30T13:44:56.198Z,100595.88
2022-07-30T13:47:27.627Z,100588.00
2022-07-30T13:49:59.064Z,100586.25
2022-07-30T13:52:30.458Z,100596.06
2022-07-30T13:55:01.759Z,100598.78
2022-07-30T13:57:33.449Z,100600.44
2022-07-30T14:00:09.504Z,100602.31
2022-07-30T14:02:41.173Z,100617.84
2022-07-30T14:05:12.982Z,100611.31
2022-07-30T14:07:44.685Z,100613.13
2022-07-30T14:10:17.160Z,100616.16
2022-07-30T14:12:48.540Z,100615.59
2022-07-30T14:15:19.923Z,100619.16
2022-07-30T14:17:55.984Z,100616.00
2022-07-30T14:20:29.099Z,100621.41
2022-07-30T14:23:00.886Z,100620.56
2022-07-30T14:25:32.436Z,100623.47
2022-07-30T14:28:03.843Z,100620.00
2022-07-30T14:30:35.386Z,100620.56
2022-07-30T14:33:07.258Z,100626.22
2022-07-30T14:35:38.073Z,100633.72
2022-07-30T14:38:09.464Z,100641.09
2022-07-30T14:40:40.959Z,100639.31
2022-07-30T14:43:12.304Z,100625.25
2022-07-30T14:45:43.602Z,100631.09
2022-07-30T14:48:15.204Z,100635.59
2022-07-30T14:51:11.656Z,100638.41
2022-07-30T14:53:38.148Z,100636.72
2022-07-30T14:56:10.323Z,100645.22
2022-07-30T14:58:41.882Z,100639.88
2022-07-30T15:01:16.407Z,100585.75
2022-07-30T15:03:48.812Z,100640.00
2022-07-30T15:06:20.238Z,100639.34
2022-07-30T15:08:51.696Z,100652.22
2022-07-30T15:11:23.651Z,100652.69
2022-07-30T15:13:56.948Z,100629.47
2022-07-30T15:16:30.744Z,100646.47
2022-07-30T15:19:02.133Z,100645.31
2022-07-30T15:21:33.716Z,100654.72
2022-07-30T15:24:05.107Z,100608.16
2022-07-30T15:26:36.514Z,100642.91
2022-07-30T15:29:12.988Z,100642.28
2022-07-30T15:31:44.909Z,100639.66
2022-07-30T15:34:16.310Z,100633.41
2022-07-30T15:36:47.729Z,100630.19
2022-07-30T15:39:19.124Z,100648.84
2022-07-30T15:41:53.940Z,100652.53
2022-07-30T15:44:25.698Z,100640.19
2022-07-30T15:46:57.217Z,100629.22
2022-07-30T15:49:29.540Z,100636.41
2022-07-30T15:52:07.880Z,100626.25
2022-07-30T15:54:39.688Z,100632.97
2022-07-30T15:57:11.157Z,100636.38
2022-07-30T15:59:42.522Z,100632.22
2022-07-30T16:02:13.941Z,100627.72
2022-07-30T16:04:48.230Z,100625.03
2022-07-30T16:07:19.905Z,100624.78
2022-07-30T16:09:51.469Z,100576.41
2022-07-30T16:12:22.811Z,100629.22
2022-07-30T16:14:54.282Z,100619.91
2022-07-30T16:17:25.706Z,100613.06
2022-07-30T16:19:57.056Z,100616.59
2022-07-30T16:22:28.590Z,100622.22
2022-07-30T16:24:59.959Z,100614.34
2022-07-30T16:27:31.445Z,100619.97
2022-07-30T16:30:02.946Z,100614.19
2022-07-30T16:32:34.358Z,100617.50
2022-07-30T16:35:07.659Z,100618.22
2022-07-30T16:37:41.495Z,100616.72
2022-07-30T16:40:13.370Z,100593.09
2022-07-30T16:42:44.840Z,100601.00
2022-07-30T16:45:16.225Z,100595.50
2022-07-30T16:47:47.703Z,100585.69
2022-07-30T16:50:18.936Z,100582.16
2022-07-30T16:52:50.419Z,100582.16
2022-07-30T16:55:21.909Z,100593.50
2022-07-30T16:57:53.601Z,100585.16
2022-07-30T17:00:24.992Z,100588.91
2022-07-30T17:02:56.358Z,100586.19
2022-07-30T17:05:27.717Z,100586.63
2022-07-30T17:07:59.404Z,100588.75
2022-07-30T17:10:30.777Z,100583.72
2022-07-30T17:13:02.440Z,100574.63
2022-07-30T17:15:34.131Z,100520.03
2022-07-30T17:18:05.730Z,100575.44
2022-07-30T17:20:37.219Z,100576.72
2022-07-30T17:23:09.251Z,100567.28
2022-07-30T17:25:40.595Z,100577.16
2022-07-30T17:28:11.878Z,100571.75
2022-07-30T17:30:43.511Z,100579.50
2022-07-30T17:33:15.086Z,100559.78
2022-07-30T17:35:47.292Z,100569.78
2022-07-30T17:38:18.742Z,100568.56
2022-07-30T17:40:50.183Z,100559.31
2022-07-30T17:43:21.520Z,100564.88
2022-07-30T17:45:52.916Z,100506.16
2022-07-30T17:48:24.238Z,100560.53
2022-07-30T17:50:55.813Z,100557.47
2022-07-30T17:53:27.261Z,100552.94
2022-07-30T17:55:58.562Z,100551.66
2022-07-30T17:58:29.939Z,100543.16
2022-07-30T18:01:04.072Z,100538.81
2022-07-30T18:03:35.892Z,100515.78
2022-07-30T18:06:07.835Z,100533.47
2022-07-30T18:08:39.267Z,100522.72
2022-07-30T18:11:13.661Z,100529.72
2022-07-30T18:13:46.004Z,100531.72
2022-07-30T18:16:16.717Z,100540.31
2022-07-30T18:18:47.986Z,100542.28
2022-07-30T18:21:19.826Z,100527.53
2022-07-30T18:23:51.227Z,100527.53
2022-07-30T18:26:23.271Z,100525.88
2022-07-30T18:28:54.756Z,100519.88
2022-07-30T18:31:26.111Z,100518.22
2022-07-30T18:33:57.383Z,100516.34
2022-07-30T18:36:29.066Z,100504.63
2022-07-30T18:39:00.311Z,100512.38
2022-07-30T18:41:31.770Z,100506.97
2022-07-30T18:44:03.284Z,100508.28
2022-07-30T18:46:35.111Z,100499.53
2022-07-30T18:49:26.539Z,100506.16
2022-07-30T18:51:58.503Z,100494.59
2022-07-30T18:54:30.388Z,100490.81
2022-07-30T18:57:01.810Z,100495.84
2022-07-30T18:59:33.291Z,100492.53
2022-07-30T19:02:06.047Z,100492.75
2022-07-30T19:04:37.980Z,100487.94
2022-07-30T19:07:09.194Z,100458.13
2022-07-30T19:09:40.956Z,100468.41
2022-07-30T19:12:12.370Z,100468.88
2022-07-30T19:14:45.975Z,100452.72
2022-07-30T19:17:17.179Z,100458.94
2022-07-30T19:19:48.894Z,100447.31
2022-07-30T19:22:30.033Z,100463.91
2022-07-30T19:25:01.462Z,100460.63
2022-07-30T19:27:32.710Z,100440.84
2022-07-30T19:30:04.361Z,100449.81
2022-07-30T19:32:35.701Z,100414.63
2022-07-30T19:35:13.301Z,100430.72
2022-07-30T19:37:45.248Z,100430.72
2022-07-30T19:40:16.787Z,100431.75
2022-07-30T19:42:53.269Z,100426.59
2022-07-30T19:45:27.773Z,100401.56
2022-07-30T19:48:29.595Z,100410.88
2022-07-30T19:51:03.250Z,100415.00
2022-07-30T19:53:36.255Z,100382.78
2022-07-30T19:56:10.718Z,100397.19
2022-07-30T19:58:42.697Z,100340.16
2022-07-30T20:01:15.873Z,100399.06
2022-07-30T20:03:47.310Z,100395.53
2022-07-30T20:06:20.669Z,100394.72
2022-07-30T20:08:52.928Z,100393.09
2022-07-30T20:11:36.260Z,100396.00
2022-07-30T20:14:08.041Z,100394.13
2022-07-30T20:16:39.583Z,100401.03
2022-07-30T20:19:11.737Z,100391.94
2022-07-30T20:21:54.260Z,100385.13
2022-07-30T20:24:29.042Z,100399.81
2022-07-30T20:27:00.784Z,100389.81
2022-07-30T20:29:41.526Z,100397.50
2022-07-30T20:32:13.193Z,100399.34
2022-07-30T20:34:45.973Z,100403.53
2022-07-30T20:37:22.470Z,100387.38
2022-07-30T20:39:54.871Z,100401.28
2022-07-30T20:42:27.209Z,100401.28
2022-07-30T20:44:59.676Z,100394.44
2022-07-30T20:47:34.633Z,100397.75
2022-07-30T20:50:12.170Z,100325.25
2022-07-30T20:52:46.915Z,100392.19
2022-07-30T20:55:22.086Z,100369.19
2022-07-30T20:58:00.271Z,100404.00
2022-07-30T21:00:38.261Z,100319.19
2022-07-30T21:03:13.899Z,100395.47
2022-07-30T21:05:47.207Z,100397.00
2022-07-30T21:08:18.484Z,100396.81
2022-07-30T21:10:51.420Z,100400.75
2022-07-30T21:13:25.010Z,100399.34
2022-07-30T21:18:49.938Z,100425.94
2022-07-30T21:24:20.397Z,100407.16
2022-07-30T21:26:53.320Z,100385.66
2022-07-30T21:29:24.845Z,100413.31
2022-07-30T21:31:56.345Z,100415.84
2022-07-30T21:34:40.402Z,100422.09
2022-07-30T21:37:15.774Z,100417.53
2022-07-30T21:39:48.402Z,100429.34
2022-07-30T21:42:25.855Z,100426.72
2022-07-30T21:45:01.629Z,100420.50
2022-07-30T21:47:34.859Z,100419.69
2022-07-30T21:50:06.828Z,100419.88
2022-07-30T21:52:40.443Z,100429.63
2022-07-30T21:55:13.520Z,100367.16
2022-07-30T21:57:45.149Z,100418.41
2022-07-30T22:00:23.817Z,100369.03
2022-07-30T22:02:55.152Z,100398.78
2022-07-30T22:05:38.447Z,100410.59
2022-07-30T22:08:12.096Z,100384.53
2022-07-30T22:10:47.328Z,100414.31
2022-07-30T22:13:22.652Z,100404.84
2022-07-30T22:15:54.266Z,100416.66
2022-07-30T22:18:26.052Z,100412.50
2022-07-30T22:20:57.553Z,100383.72
2022-07-30T22:23:28.861Z,100417.25
2022-07-30T22:26:00.495Z,100417.91
2022-07-30T22:28:32.337Z,100421.69
2022-07-30T22:31:05.704Z,100412.75
2022-07-30T22:33:37.216Z,100424.78
2022-07-30T22:36:09.918Z,100434.09
2022-07-30T22:38:42.829Z,100435.97
2022-07-30T22:41:30.192Z,100427.31
2022-07-30T22:44:02.399Z,100428.31
2022-07-30T22:46:33.815Z,100444.34
2022-07-30T22:49:05.397Z,100441.81
2022-07-30T22:52:03.868Z,100440.19
2022-07-30T22:54:31.183Z,100381.06
2022-07-30T22:57:04.145Z,100442.06
2022-07-30T22:59:59.845Z,100456.38
2022-07-30T23:02:28.319Z,100406.28
2022-07-30T23:04:59.963Z,100449.75
2022-07-30T23:10:27.719Z,100441.50
2022-07-30T23:12:27.039Z,100389.69
2022-07-30T23:12:27.128Z,100397.38
2022-07-30T23:12:30.999Z,100443.84
2022-07-30T23:12:59.524Z,100454.28
2022-07-30T23:15:31.008Z,100454.00
2022-07-30T23:18:02.326Z,100442.31
2022-07-30T23:20:33.624Z,100446.63
2022-07-30T23:23:06.401Z,100450.13
2022-07-30T23:25:38.553Z,100453.38
2022-07-30T23:28:10.612Z,100446.91
2022-07-30T23:30:41.892Z,100455.50
2022-07-30T23:33:13.298Z,100452.94
2022-07-30T23:35:45.212Z,100454.75
2022-07-30T23:38:16.545Z,100454.88
2022-07-30T23:40:47.837Z,100452.34
2022-07-30T23:43:19.389Z,100460.16
2022-07-30T23:45:51.053Z,100462.44
2022-07-30T23:48:22.508Z,100468.59
2022-07-30T23:50:54.297Z,100460.69
2022-07-30T23:53:25.963Z,100419.72
2022-07-30T23:55:57.323Z,100469.03
2022-07-30T23:58:28.624Z,100469.03
